createdAt,value
2022-11-24T00:00:31.808Z,502.60
2022-11-24T00:02:58.691Z,503.47
2022-11-24T00:05:25.536Z,507.75
2022-11-24T00:07:52.445Z,504.85
2022-11-24T00:10:19.120Z,503.35
2022-11-24T00:12:45.847Z,504.60
2022-11-24T00:15:12.474Z,502.92
2022-11-24T00:17:39.097Z,502.02
2022-11-24T00:20:06.380Z,505.13
2022-11-24T00:22:33.001Z,500.48
2022-11-24T00:24:59.570Z,498.83
2022-11-24T00:27:26.171Z,500.23
2022-11-24T00:29:52.949Z,503.75
2022-11-24T00:32:19.685Z,504.00
2022-11-24T00:34:47.405Z,502.15
2022-11-24T00:37:13.990Z,505.42
2022-11-24T00:39:40.643Z,505.05
2022-11-24T00:42:07.261Z,502.10
2022-11-24T00:44:34.045Z,504.33
2022-11-24T00:47:01.117Z,499.23
2022-11-24T00:49:27.809Z,498.48
2022-11-24T00:51:54.395Z,498.27
2022-11-24T00:54:21.219Z,497.47
2022-11-24T00:56:47.800Z,503.97
2022-11-24T00:59:14.407Z,505.55
2022-11-24T01:01:42.559Z,509.15
2022-11-24T01:04:09.342Z,499.20
2022-11-24T01:06:36.464Z,497.00
2022-11-24T01:09:04.271Z,496.65
2022-11-24T01:11:51.621Z,492.98
2022-11-24T01:14:18.902Z,491.47
2022-11-24T01:16:45.636Z,500.00
2022-11-24T01:19:12.300Z,492.13
2022-11-24T01:21:39.012Z,498.60
2022-11-24T01:24:05.959Z,499.42
2022-11-24T01:26:32.604Z,498.63
2022-11-24T01:28:59.298Z,500.67
2022-11-24T01:31:27.013Z,501.95
2022-11-24T01:33:54.559Z,497.15
2022-11-24T01:36:22.052Z,497.03
2022-11-24T01:38:48.698Z,502.52
2022-11-24T01:41:23.557Z,502.63
2022-11-24T01:43:52.129Z,505.65
2022-11-24T01:46:27.828Z,501.60
2022-11-24T01:49:13.017Z,495.38
2022-11-24T01:51:44.517Z,496.55
2022-11-24T01:54:18.396Z,502.08
2022-11-24T01:56:49.231Z,500.05
2022-11-24T01:59:19.503Z,499.15
2022-11-24T02:01:48.646Z,499.85
2022-11-24T02:04:19.550Z,496.60
2022-11-24T02:06:47.320Z,496.30
2022-11-24T02:09:26.475Z,501.13
2022-11-24T02:11:55.066Z,500.40
2022-11-24T02:14:23.853Z,494.55
2022-11-24T02:16:53.124Z,493.42
2022-11-24T02:19:35.177Z,494.15
2022-11-24T02:22:04.215Z,494.92
2022-11-24T02:24:41.201Z,499.45
2022-11-24T02:27:09.684Z,499.90
2022-11-24T02:29:36.353Z,500.65
2022-11-24T02:32:07.340Z,497.23
2022-11-24T02:34:34.485Z,497.85
2022-11-24T02:37:01.307Z,491.55
2022-11-24T02:39:28.041Z,496.95
2022-11-24T02:42:03.306Z,496.38
2022-11-24T02:44:34.670Z,492.73
2022-11-24T02:47:10.508Z,496.75
2022-11-24T02:49:37.498Z,500.40
2022-11-24T02:52:05.239Z,499.73
2022-11-24T02:54:32.612Z,503.95
2022-11-24T02:57:00.692Z,499.38
2022-11-24T02:59:27.381Z,497.95
2022-11-24T03:01:54.046Z,493.60
2022-11-24T03:04:20.716Z,493.33
2022-11-24T03:06:47.320Z,488.70
2022-11-24T03:09:13.936Z,497.05
2022-11-24T03:11:40.652Z,492.27
2022-11-24T03:14:07.875Z,498.75
2022-11-24T03:16:34.560Z,503.77
2022-11-24T03:19:01.987Z,501.13
2022-11-24T03:21:28.666Z,506.80
2022-11-24T03:23:55.687Z,507.95
2022-11-24T03:26:24.931Z,502.70
2022-11-24T03:28:58.610Z,500.65
2022-11-24T03:31:25.237Z,508.00
2022-11-24T03:33:51.916Z,506.33
2022-11-24T03:36:18.577Z,506.73
2022-11-24T03:38:45.435Z,505.38
2022-11-24T03:41:12.225Z,501.13
2022-11-24T03:43:43.492Z,503.75
2022-11-24T03:46:11.688Z,499.60
2022-11-24T03:48:38.447Z,493.35
2022-11-24T03:51:05.246Z,494.55
2022-11-24T03:53:33.531Z,496.33
2022-11-24T03:56:00.488Z,496.80
2022-11-24T03:58:27.152Z,489.15
2022-11-24T04:00:54.398Z,496.77
2022-11-24T04:03:21.497Z,498.10
2022-11-24T04:05:48.731Z,499.80
2022-11-24T04:08:16.336Z,495.88
2022-11-24T04:10:43.168Z,494.70
2022-11-24T04:13:15.107Z,499.15
2022-11-24T04:15:42.808Z,498.98
2022-11-24T04:18:11.553Z,498.10
2022-11-24T04:20:39.158Z,493.55
2022-11-24T04:23:05.937Z,494.27
2022-11-24T04:25:32.687Z,494.57
2022-11-24T04:27:59.382Z,499.17
2022-11-24T04:30:27.851Z,495.00
2022-11-24T04:32:54.708Z,500.83
2022-11-24T04:35:21.600Z,508.35
2022-11-24T04:37:48.465Z,503.13
2022-11-24T04:40:15.996Z,500.73
2022-11-24T04:42:42.658Z,496.25
2022-11-24T04:45:11.014Z,499.20
2022-11-24T04:47:38.387Z,500.77
2022-11-24T04:50:07.701Z,503.27
2022-11-24T04:52:34.580Z,502.92
2022-11-24T04:55:01.441Z,502.20
2022-11-24T04:57:28.154Z,503.63
2022-11-24T04:59:55.297Z,495.60
2022-11-24T05:02:23.049Z,492.88
2022-11-24T05:04:49.679Z,482.95
2022-11-24T05:07:19.014Z,492.00
2022-11-24T05:10:05.590Z,479.27
2022-11-24T05:12:32.491Z,478.27
2022-11-24T05:15:04.471Z,472.00
2022-11-24T05:17:33.066Z,466.48
2022-11-24T05:19:59.876Z,480.07
2022-11-24T05:22:28.997Z,474.30
2022-11-24T05:24:57.931Z,472.60
2022-11-24T05:27:24.764Z,476.02
2022-11-24T05:29:51.341Z,476.25
2022-11-24T05:32:18.182Z,482.15
2022-11-24T05:34:44.828Z,474.77
2022-11-24T05:37:11.574Z,470.73
2022-11-24T05:39:38.256Z,471.30
2022-11-24T05:42:25.964Z,471.02
2022-11-24T05:44:53.415Z,474.80
2022-11-24T05:47:20.525Z,480.88
2022-11-24T05:49:47.117Z,477.60
2022-11-24T05:52:13.926Z,464.77
2022-11-24T05:54:40.559Z,464.00
2022-11-24T05:57:07.181Z,454.55
2022-11-24T05:59:33.989Z,474.73
2022-11-24T06:02:00.967Z,467.27
2022-11-24T06:04:27.739Z,467.03
2022-11-24T06:06:54.475Z,470.23
2022-11-24T06:09:21.239Z,469.70
2022-11-24T06:11:48.696Z,464.77
2022-11-24T06:14:15.347Z,469.48
2022-11-24T06:16:42.081Z,467.00
2022-11-24T06:19:10.221Z,467.38
2022-11-24T06:21:36.956Z,466.20
2022-11-24T06:24:04.195Z,466.17
2022-11-24T06:26:30.823Z,470.38
2022-11-24T06:28:57.594Z,471.60
2022-11-24T06:31:24.249Z,466.35
2022-11-24T06:33:50.977Z,465.80
2022-11-24T06:36:17.607Z,467.85
2022-11-24T06:38:44.280Z,458.80
2022-11-24T06:41:15.881Z,463.37
2022-11-24T06:43:43.001Z,470.67
2022-11-24T06:46:10.406Z,471.65
2022-11-24T06:48:37.340Z,470.85
2022-11-24T06:51:07.008Z,473.70
2022-11-24T06:53:38.001Z,463.08
2022-11-24T06:56:10.593Z,464.25
2022-11-24T06:58:45.391Z,467.17
2022-11-24T07:01:23.376Z,466.45
2022-11-24T07:03:51.315Z,463.80
2022-11-24T07:06:18.875Z,467.92
2022-11-24T07:08:45.998Z,458.23
2022-11-24T07:11:15.637Z,469.85
2022-11-24T07:13:46.323Z,465.48
2022-11-24T07:16:25.169Z,463.80
2022-11-24T07:18:53.692Z,456.63
2022-11-24T07:21:21.787Z,467.42
2022-11-24T07:23:49.825Z,464.20
2022-11-24T07:26:17.931Z,467.85
2022-11-24T07:28:44.922Z,456.13
2022-11-24T07:31:14.251Z,466.13
2022-11-24T07:33:41.273Z,466.52
2022-11-24T07:36:08.779Z,465.83
2022-11-24T07:38:36.063Z,456.00
2022-11-24T07:41:06.193Z,464.80
2022-11-24T07:43:34.067Z,470.05
2022-11-24T07:46:00.881Z,461.45
2022-11-24T07:48:27.711Z,450.83
2022-11-24T07:50:56.336Z,449.27
2022-11-24T07:53:23.257Z,445.00
2022-11-24T07:55:58.268Z,452.52
2022-11-24T07:58:30.344Z,462.80
2022-11-24T08:00:59.553Z,446.80
2022-11-24T08:03:26.445Z,446.23
2022-11-24T08:06:23.090Z,447.05
2022-11-24T08:08:44.939Z,456.23
2022-11-24T08:11:14.689Z,451.67
2022-11-24T08:13:41.963Z,458.20
2022-11-24T08:16:15.190Z,447.80
2022-11-24T08:18:42.267Z,454.40
2022-11-24T08:21:12.892Z,446.38
2022-11-24T08:23:39.568Z,440.63
2022-11-24T08:26:09.287Z,437.98
2022-11-24T08:28:36.842Z,447.43
2022-11-24T08:31:21.763Z,446.65
2022-11-24T08:33:48.437Z,439.93
2022-11-24T08:36:17.805Z,439.95
2022-11-24T08:38:45.438Z,441.83
2022-11-24T08:41:14.593Z,438.25
2022-11-24T08:43:41.672Z,441.40
2022-11-24T08:46:11.241Z,438.23
2022-11-24T08:48:38.348Z,437.92
2022-11-24T08:51:10.314Z,442.13
2022-11-24T08:53:38.079Z,440.15
2022-11-24T08:56:05.696Z,443.33
2022-11-24T08:58:34.293Z,450.80
2022-11-24T09:01:10.029Z,438.02
2022-11-24T09:03:38.309Z,441.20
2022-11-24T09:06:07.295Z,442.58
2022-11-24T09:08:34.123Z,448.20
2022-11-24T09:11:05.743Z,448.88
2022-11-24T09:13:32.700Z,449.35
2022-11-24T09:16:11.161Z,453.42
2022-11-24T09:18:37.989Z,448.35
2022-11-24T09:21:09.249Z,443.90
2022-11-24T09:23:36.147Z,441.52
2022-11-24T09:26:07.234Z,446.10
2022-11-24T09:28:33.895Z,449.77
2022-11-24T09:31:05.041Z,445.13
2022-11-24T09:33:32.592Z,444.75
2022-11-24T09:35:59.682Z,450.08
2022-11-24T09:38:26.669Z,446.38
2022-11-24T09:40:56.303Z,446.27
2022-11-24T09:43:34.692Z,438.42
2022-11-24T09:46:06.050Z,444.05
2022-11-24T09:48:47.548Z,444.50
2022-11-24T09:51:15.508Z,448.52
2022-11-24T09:54:02.541Z,451.67
2022-11-24T09:56:34.398Z,451.85
2022-11-24T09:59:23.909Z,453.05
2022-11-24T10:01:51.986Z,454.52
2022-11-24T10:04:20.415Z,450.17
2022-11-24T10:07:12.045Z,452.52
2022-11-24T10:10:24.802Z,454.00
2022-11-24T10:13:18.328Z,453.57
2022-11-24T10:15:52.441Z,453.77
2022-11-24T10:18:37.687Z,452.88
2022-11-24T10:21:43.592Z,453.60
2022-11-24T10:24:53.425Z,449.55
2022-11-24T10:27:30.475Z,461.80
2022-11-24T10:29:57.577Z,455.67
2022-11-24T10:32:45.328Z,451.92
2022-11-24T10:35:26.740Z,454.77
2022-11-24T10:38:20.611Z,456.75
2022-11-24T10:40:58.562Z,463.42
2022-11-24T10:43:27.944Z,462.67
2022-11-24T10:46:28.376Z,466.45
2022-11-24T10:49:04.929Z,467.20
2022-11-24T10:51:36.992Z,467.48
2022-11-24T10:54:21.492Z,457.13
2022-11-24T10:56:51.241Z,452.58
2022-11-24T10:59:22.403Z,451.00
2022-11-24T11:01:49.077Z,450.27
2022-11-24T11:04:30.211Z,452.92
2022-11-24T11:07:16.552Z,456.27
2022-11-24T11:09:43.247Z,457.38
2022-11-24T11:12:42.098Z,456.40
2022-11-24T11:15:21.715Z,456.13
2022-11-24T11:17:50.408Z,452.52
2022-11-24T11:20:22.196Z,456.48
2022-11-24T11:22:50.381Z,445.80
2022-11-24T11:25:16.918Z,445.85
2022-11-24T11:27:43.707Z,454.67
2022-11-24T11:36:11.192Z,450.20
2022-11-24T11:38:40.239Z,451.23
2022-11-24T11:41:17.752Z,454.67
2022-11-24T11:43:47.066Z,455.20
2022-11-24T11:46:18.139Z,449.85
2022-11-24T11:48:47.153Z,458.88
2022-11-24T11:51:23.416Z,456.88
2022-11-24T11:53:57.017Z,446.13
2022-11-24T11:56:37.500Z,448.40
2022-11-24T11:59:26.105Z,446.20
2022-11-24T12:02:21.128Z,452.27
2022-11-24T12:05:05.470Z,458.98
2022-11-24T12:07:47.482Z,457.08
2022-11-24T12:10:29.319Z,448.75
2022-11-24T12:13:23.862Z,449.63
2022-11-24T12:15:54.215Z,449.33
2022-11-24T12:18:57.438Z,448.55
2022-11-24T12:21:58.732Z,436.95
2022-11-24T12:24:48.291Z,431.35
2022-11-24T12:27:34.541Z,442.55
2022-11-24T12:30:10.637Z,446.00
2022-11-24T12:32:41.109Z,445.98
2022-11-24T12:35:38.538Z,442.45
2022-11-24T12:38:24.950Z,441.60
2022-11-24T12:41:18.327Z,454.45
2022-11-24T12:43:51.986Z,450.42
2022-11-24T12:46:50.841Z,459.58
2022-11-24T12:49:34.378Z,459.00
2022-11-24T12:52:23.511Z,446.85
2022-11-24T12:54:50.106Z,445.83
2022-11-24T12:57:26.258Z,447.10
2022-11-24T13:00:09.593Z,441.95
2022-11-24T13:02:51.721Z,429.38
2022-11-24T13:05:21.529Z,429.85
2022-11-24T13:08:01.062Z,428.13
2022-11-24T13:13:22.128Z,442.85
2022-11-24T13:16:34.442Z,451.67
2022-11-24T13:18:45.283Z,457.17
2022-11-24T13:21:40.499Z,445.83
2022-11-24T13:24:30.715Z,449.52
2022-11-24T13:27:15.928Z,446.08
2022-11-24T13:29:52.232Z,448.00
2022-11-24T13:32:18.853Z,444.95
2022-11-24T13:34:45.829Z,445.30
2022-11-24T13:37:31.459Z,442.17
2022-11-24T13:40:22.517Z,453.70
2022-11-24T13:42:55.366Z,442.67
2022-11-24T13:45:45.132Z,440.13
2022-11-24T13:48:35.306Z,436.95
2022-11-24T13:51:01.885Z,431.60
2022-11-24T13:53:45.304Z,435.30
2022-11-24T13:56:11.918Z,434.77
2022-11-24T13:58:45.825Z,433.38
2022-11-24T14:01:15.259Z,436.20
2022-11-24T14:06:52.897Z,426.38
2022-11-24T14:09:35.527Z,419.60
2022-11-24T14:12:16.223Z,425.93
2022-11-24T14:14:44.678Z,419.83
2022-11-24T14:17:29.285Z,414.55
2022-11-24T14:19:57.500Z,420.75
2022-11-24T14:22:41.202Z,426.85
2022-11-24T14:25:22.885Z,423.95
2022-11-24T14:27:49.651Z,422.15
2022-11-24T14:30:19.680Z,423.33
2022-11-24T14:32:56.917Z,431.15
2022-11-24T14:35:29.563Z,430.63
2022-11-24T14:37:56.564Z,433.25
2022-11-24T14:40:41.514Z,430.02
2022-11-24T14:43:23.277Z,427.83
2022-11-24T14:46:02.098Z,433.52
2022-11-24T14:48:31.521Z,435.83
2022-11-24T14:51:21.676Z,442.38
2022-11-24T14:53:55.238Z,440.40
2022-11-24T14:56:24.596Z,435.60
2022-11-24T14:58:51.791Z,440.70
2022-11-24T15:01:21.117Z,440.65
2022-11-24T15:07:21.552Z,445.40
2022-11-24T15:09:48.081Z,452.70
2022-11-24T15:12:34.377Z,456.45
2022-11-24T15:15:14.673Z,447.85
2022-11-24T15:17:58.270Z,442.63
2022-11-24T15:20:37.573Z,445.65
2022-11-24T15:23:16.004Z,441.95
2022-11-24T15:25:44.365Z,441.10
2022-11-24T15:28:11.968Z,437.88
2022-11-24T15:30:38.821Z,438.02
2022-11-24T15:33:14.724Z,433.15
2022-11-24T15:35:41.734Z,436.20
2022-11-24T15:38:08.373Z,431.88
2022-11-24T15:40:36.635Z,441.23
2022-11-24T15:43:06.440Z,432.90
2022-11-24T15:45:34.251Z,443.95
2022-11-24T15:48:00.770Z,443.58
2022-11-24T15:50:27.396Z,444.75
2022-11-24T15:52:54.127Z,438.33
2022-11-24T15:55:22.004Z,437.83
2022-11-24T15:57:49.086Z,439.13
2022-11-24T16:00:17.376Z,439.15
2022-11-24T16:02:44.004Z,442.60
2022-11-24T16:05:11.768Z,438.55
2022-11-24T16:07:38.422Z,428.08
2022-11-24T16:10:07.791Z,432.07
2022-11-24T16:12:34.517Z,435.02
2022-11-24T16:15:01.117Z,429.90
2022-11-24T16:17:27.732Z,424.88
2022-11-24T16:20:00.312Z,423.80
2022-11-24T16:22:27.462Z,438.08
2022-11-24T16:24:54.102Z,440.85
2022-11-24T16:27:20.745Z,448.63
2022-11-24T16:29:47.321Z,442.50
2022-11-24T16:32:13.864Z,435.75
2022-11-24T16:34:40.558Z,437.40
2022-11-24T16:37:07.122Z,436.33
2022-11-24T16:39:33.808Z,438.50
2022-11-24T16:42:00.367Z,438.00
2022-11-24T16:44:26.959Z,442.43
2022-11-24T16:46:53.604Z,445.70
2022-11-24T16:49:20.274Z,452.23
2022-11-24T16:51:46.823Z,446.30
2022-11-24T16:54:13.507Z,428.42
2022-11-24T16:56:40.041Z,444.10
2022-11-24T16:59:06.682Z,439.58
2022-11-24T17:01:33.684Z,447.10
2022-11-24T17:04:00.613Z,439.80
2022-11-24T17:06:27.723Z,436.63
2022-11-24T17:08:55.222Z,437.90
2022-11-24T17:11:24.517Z,442.95
2022-11-24T17:13:51.263Z,450.63
2022-11-24T17:16:20.185Z,435.40
2022-11-24T17:18:47.370Z,442.80
2022-11-24T17:21:21.003Z,447.90
2022-11-24T17:23:48.288Z,442.70
2022-11-24T17:26:16.762Z,443.00
2022-11-24T17:28:44.153Z,436.33
2022-11-24T17:31:21.675Z,428.73
2022-11-24T17:33:50.034Z,426.48
2022-11-24T17:36:16.934Z,443.47
2022-11-24T17:38:43.875Z,436.48
2022-11-24T17:41:11.229Z,441.35
2022-11-24T17:43:39.305Z,436.20
2022-11-24T17:46:09.959Z,437.00
2022-11-24T17:48:38.593Z,434.57
2022-11-24T17:51:12.788Z,442.40
2022-11-24T17:53:43.654Z,444.38
2022-11-24T17:56:18.763Z,440.58
2022-11-24T17:58:45.977Z,434.55
2022-11-24T18:01:13.517Z,430.85
2022-11-24T18:03:41.018Z,420.27
2022-11-24T18:06:12.499Z,431.30
2022-11-24T18:08:41.435Z,423.83
2022-11-24T18:11:10.891Z,425.55
2022-11-24T18:16:25.749Z,434.83
2022-11-24T18:19:07.947Z,442.40
2022-11-24T18:21:37.420Z,444.77
2022-11-24T18:24:04.017Z,442.65
2022-11-24T18:26:30.663Z,441.25
2022-11-24T18:28:57.271Z,443.92
2022-11-24T18:31:23.882Z,447.53
2022-11-24T18:33:50.445Z,442.98
2022-11-24T18:36:19.336Z,435.85
2022-11-24T18:38:46.008Z,421.92
2022-11-24T18:41:14.232Z,424.92
2022-11-24T18:43:41.414Z,428.75
2022-11-24T18:46:11.510Z,421.80
2022-11-24T18:48:38.238Z,416.38
2022-11-24T18:51:05.467Z,429.10
2022-11-24T18:53:31.987Z,427.67
2022-11-24T18:56:03.601Z,435.00
2022-11-24T18:58:31.916Z,439.83
2022-11-24T19:01:12.217Z,430.77
2022-11-24T19:03:47.834Z,432.52
2022-11-24T19:06:26.854Z,435.30
2022-11-24T19:08:54.652Z,438.80
2022-11-24T19:11:28.244Z,425.67
2022-11-24T19:13:56.494Z,434.33
2022-11-24T19:16:23.683Z,437.58
2022-11-24T19:18:54.158Z,423.77
2022-11-24T19:21:21.719Z,424.42
2022-11-24T19:23:48.795Z,421.25
2022-11-24T19:26:15.402Z,425.80
2022-11-24T19:28:42.107Z,431.00
2022-11-24T19:31:11.746Z,428.48
2022-11-24T19:33:39.307Z,427.42
2022-11-24T19:36:09.027Z,423.60
2022-11-24T19:38:35.721Z,413.05
2022-11-24T19:41:06.993Z,423.35
2022-11-24T19:43:34.144Z,419.25
2022-11-24T19:46:08.590Z,411.45
2022-11-24T19:48:37.592Z,419.23
2022-11-24T19:51:07.218Z,422.33
2022-11-24T19:53:35.565Z,421.00
2022-11-24T19:56:22.368Z,418.35
2022-11-24T19:58:49.852Z,418.42
2022-11-24T20:01:33.711Z,413.03
2022-11-24T20:04:02.965Z,426.42
2022-11-24T20:06:32.058Z,424.65
2022-11-24T20:09:00.348Z,419.85
2022-11-24T20:11:28.130Z,419.33
2022-11-24T20:13:54.771Z,417.27
2022-11-24T20:16:28.075Z,419.67
2022-11-24T20:18:56.943Z,418.65
2022-11-24T20:21:28.427Z,419.67
2022-11-24T20:24:00.431Z,417.23
2022-11-24T20:26:30.013Z,419.38
2022-11-24T20:28:58.391Z,417.08
2022-11-24T20:31:37.244Z,416.83
2022-11-24T20:34:05.614Z,422.15
2022-11-24T20:36:33.836Z,427.73
2022-11-24T20:39:02.475Z,433.13
2022-11-24T20:41:32.110Z,423.67
2022-11-24T20:44:00.776Z,425.42
2022-11-24T20:46:30.388Z,426.58
2022-11-24T20:48:58.018Z,417.70
2022-11-24T20:51:27.579Z,434.27
2022-11-24T20:53:57.554Z,434.55
2022-11-24T20:56:26.823Z,433.40
2022-11-24T20:58:53.614Z,440.60
2022-11-24T21:01:23.926Z,434.73
2022-11-24T21:03:59.845Z,438.80
2022-11-24T21:06:28.083Z,437.40
2022-11-24T21:09:00.423Z,442.63
2022-11-24T21:11:30.751Z,441.80
2022-11-24T21:13:57.382Z,448.10
2022-11-24T21:16:26.592Z,452.13
2022-11-24T21:18:57.320Z,452.88
2022-11-24T21:21:25.915Z,455.80
2022-11-24T21:23:52.402Z,450.57
2022-11-24T21:26:19.378Z,445.80
2022-11-24T21:28:47.250Z,446.77
2022-11-24T21:31:19.498Z,444.70
2022-11-24T21:33:51.279Z,450.92
2022-11-24T21:36:20.553Z,450.85
2022-11-24T21:38:51.809Z,453.20
2022-11-24T21:41:19.272Z,459.33
2022-11-24T21:43:46.431Z,459.70
2022-11-24T21:46:13.449Z,457.38
2022-11-24T21:48:42.059Z,463.42
2022-11-24T21:51:12.816Z,462.55
2022-11-24T21:53:40.044Z,464.45
2022-11-24T21:56:12.668Z,466.95
2022-11-24T21:58:47.550Z,470.58
2022-11-24T22:01:16.367Z,475.58
2022-11-24T22:03:43.322Z,477.75
2022-11-24T22:06:10.330Z,484.60
2022-11-24T22:08:36.935Z,479.67
2022-11-24T22:11:27.914Z,469.17
2022-11-24T22:13:54.534Z,479.23
2022-11-24T22:16:22.876Z,479.73
2022-11-24T22:18:50.086Z,475.05
2022-11-24T22:21:18.974Z,476.43
2022-11-24T22:23:45.601Z,474.77
2022-11-24T22:26:14.878Z,471.90
2022-11-24T22:28:42.259Z,468.83
2022-11-24T22:31:12.040Z,468.38
2022-11-24T22:33:39.190Z,467.42
2022-11-24T22:36:06.679Z,468.75
2022-11-24T22:38:34.409Z,467.88
2022-11-24T22:41:07.018Z,476.40
2022-11-24T22:43:35.380Z,471.98
2022-11-24T22:46:06.248Z,473.90
2022-11-24T22:48:33.343Z,476.60
2022-11-24T22:51:07.237Z,466.63
2022-11-24T22:53:34.353Z,472.60
2022-11-24T22:56:02.755Z,467.02
2022-11-24T22:58:30.988Z,468.27
2022-11-24T23:01:03.018Z,463.75
2022-11-24T23:03:29.713Z,454.83
2022-11-24T23:05:59.831Z,455.38
2022-11-24T23:08:26.688Z,454.20
2022-11-24T23:11:00.022Z,452.50
2022-11-24T23:13:26.882Z,458.58
2022-11-24T23:15:53.486Z,457.65
2022-11-24T23:18:20.232Z,454.67
2022-11-24T23:20:46.768Z,456.23
2022-11-24T23:23:13.510Z,461.73
2022-11-24T23:25:40.080Z,460.50
2022-11-24T23:28:06.610Z,466.55
2022-11-24T23:30:33.146Z,469.27
2022-11-24T23:32:59.678Z,464.17
2022-11-24T23:35:26.321Z,471.02
2022-11-24T23:38:07.026Z,463.20
2022-11-24T23:40:34.288Z,467.63
2022-11-24T23:43:00.816Z,475.70
2022-11-24T23:45:27.405Z,471.58
2022-11-24T23:47:54.074Z,472.40
2022-11-24T23:50:20.708Z,472.42
2022-11-24T23:52:47.797Z,469.92
2022-11-24T23:55:14.354Z,470.37
2022-11-24T23:57:40.888Z,475.10
